Huvudsida
METAR-TAF:

METAR-TAF

Flygplatser :

Forlì, Italien

latitud: 44-12N, longitud: 012-04E, höjd: 27 m

Aktuellt väderrapport

Denna rapport gjordes för 5 timmar och 59 minuter sedan, klockan 16:50 UTC
Vind 9 kt från väst/nordväst
Temperatur 10°C
Fuktighet 76%
Tryck 1003 hPa
Sikt: 6000 m
Brutna moln på en höjd av 4500 ft
lätt regn

METAR: LIPK 151650Z 30009KT 6000 -RA BKN045 10/06 Q1003

Tid: 23:49 (22:49 UTC)


TAF: saknas

Aktuella väderrapporter och prognoser från 4000 flygplatser (METAR- och TAF-rapporter).

De tillgängliga stationerna syns som gula och röda prickar på kartan.

För musen över prickarna för att se namnen på stationerna.

Klicka sedan för att få väderrapporter och prognoser.

För att ändra kartan: Klicka på de gröna knapparna med ett svart kors på för att zooma in; den gröna knappen med ett streck på för att zooma ut; eller på de gröna pilarna för angränsande kartor.


METAR-TAF: